createdAt,value
2023-09-05T00:03:08.530Z,101862.03
2023-09-05T00:08:13.025Z,101856.09
2023-09-05T00:13:18.522Z,101854.47
2023-09-05T00:18:22.601Z,101858.09
2023-09-05T00:23:27.871Z,101851.69
2023-09-05T00:28:34.408Z,101855.84
2023-09-05T00:33:38.499Z,101852.53
2023-09-05T00:38:43.441Z,101852.06
2023-09-05T00:43:50.495Z,101861.28
2023-09-05T00:48:58.247Z,101860.78
2023-09-05T00:54:04.991Z,101861.13
2023-09-05T00:59:12.292Z,101858.00
2023-09-05T01:04:16.492Z,101854.72
2023-09-05T01:09:31.848Z,101860.47
2023-09-05T01:14:37.273Z,101859.13
2023-09-05T01:19:42.560Z,101841.69
2023-09-05T01:24:51.352Z,101850.91
2023-09-05T01:29:56.968Z,101853.91
2023-09-05T01:35:01.310Z,101849.94
2023-09-05T01:40:08.485Z,101859.81
2023-09-05T01:45:12.743Z,101849.94
2023-09-05T01:50:16.859Z,101857.00
2023-09-05T01:55:22.258Z,101864.59
2023-09-05T02:00:26.367Z,101856.84
2023-09-05T02:05:30.384Z,101850.94
2023-09-05T02:10:35.788Z,101855.53
2023-09-05T02:15:39.813Z,101858.50
2023-09-05T02:20:43.982Z,101848.97
2023-09-05T02:26:00.602Z,101857.19
2023-09-05T02:31:07.753Z,101853.22
2023-09-05T02:36:16.859Z,101850.13
2023-09-05T02:41:22.467Z,101844.16
2023-09-05T02:46:26.884Z,101843.53
2023-09-05T02:51:31.016Z,101833.16
2023-09-05T02:56:36.423Z,101837.09
2023-09-05T03:01:40.663Z,101839.56
2023-09-05T03:06:44.717Z,101822.44
2023-09-05T03:11:51.435Z,101820.16
2023-09-05T03:16:56.070Z,101824.41
2023-09-05T03:22:00.636Z,101830.84
2023-09-05T03:27:06.667Z,101838.25
2023-09-05T03:32:11.312Z,101831.47
2023-09-05T03:37:15.393Z,101820.56
2023-09-05T03:42:20.999Z,101825.84
2023-09-05T03:47:25.008Z,101829.78
2023-09-05T03:52:28.955Z,101820.56
2023-09-05T03:57:34.352Z,101818.09
2023-09-05T04:02:38.525Z,101811.84
2023-09-05T04:07:45.042Z,101808.41
2023-09-05T04:12:52.443Z,101809.38
2023-09-05T04:17:56.577Z,101799.38
2023-09-05T04:23:00.623Z,101795.56
2023-09-05T04:28:07.073Z,101783.38
2023-09-05T04:33:12.422Z,101793.72
2023-09-05T04:38:16.570Z,101785.81
2023-09-05T04:43:22.281Z,101790.41
2023-09-05T04:48:27.095Z,101796.81
2023-09-05T04:53:31.479Z,101786.63
2023-09-05T04:58:36.859Z,101786.44
2023-09-05T05:03:41.230Z,101795.13
2023-09-05T05:08:45.443Z,101805.00
2023-09-05T05:13:51.106Z,101817.31
2023-09-05T05:18:55.107Z,101813.06
2023-09-05T05:23:59.143Z,101807.97
2023-09-05T05:29:04.795Z,101812.53
2023-09-05T05:34:08.994Z,101811.88
2023-09-05T05:39:14.434Z,101804.97
2023-09-05T05:44:19.798Z,101812.53
2023-09-05T05:49:24.262Z,101816.47
2023-09-05T05:54:28.845Z,101817.81
2023-09-05T05:59:34.293Z,101830.28
2023-09-05T06:04:38.423Z,101827.03
2023-09-05T06:09:42.566Z,101823.56
2023-09-05T06:14:48.291Z,101824.06
2023-09-05T06:19:52.472Z,101821.78
2023-09-05T06:24:56.547Z,101825.75
2023-09-05T06:30:01.936Z,101826.06
2023-09-05T06:35:06.975Z,101830.03
2023-09-05T06:40:16.553Z,101832.00
2023-09-05T06:45:22.415Z,101827.09
2023-09-05T06:50:26.497Z,101816.91
2023-09-05T06:55:35.866Z,101808.72
2023-09-05T07:00:41.350Z,101819.22
2023-09-05T07:05:59.936Z,101819.25
2023-09-05T07:11:09.444Z,101809.03
2023-09-05T07:16:14.871Z,101795.91
2023-09-05T07:21:18.938Z,101794.63
2023-09-05T07:26:23.092Z,101789.38
2023-09-05T07:31:32.590Z,101788.38
2023-09-05T07:36:40.787Z,101794.78
2023-09-05T07:41:44.784Z,101801.84
2023-09-05T07:46:50.156Z,101789.16
2023-09-05T07:51:55.323Z,101795.22
2023-09-05T07:56:59.745Z,101800.63
2023-09-05T08:02:05.723Z,101792.19
2023-09-05T08:07:09.798Z,101792.94
2023-09-05T08:12:14.472Z,101782.81
2023-09-05T08:17:20.056Z,101788.03
2023-09-05T08:22:24.163Z,101776.38
2023-09-05T08:27:30.555Z,101775.09
2023-09-05T08:32:36.364Z,101769.53
2023-09-05T08:37:40.594Z,101772.78
2023-09-05T08:42:44.897Z,101769.66
2023-09-05T08:47:50.453Z,101774.06
2023-09-05T08:52:57.483Z,101767.44
2023-09-05T08:58:02.887Z,101765.81
2023-09-05T09:03:08.809Z,101767.47
2023-09-05T09:08:13.008Z,101764.72
2023-09-05T09:13:20.043Z,101758.50
2023-09-05T09:18:28.406Z,101749.72
2023-09-05T09:23:36.413Z,101757.56
2023-09-05T09:28:41.257Z,101751.28
2023-09-05T09:33:56.780Z,101775.34
2023-09-05T09:39:08.834Z,101757.16
2023-09-05T09:44:26.423Z,101738.38
2023-09-05T09:49:33.621Z,101751.94
2023-09-05T09:54:40.469Z,101738.81
2023-09-05T09:59:51.735Z,101732.59
2023-09-05T10:04:58.749Z,101723.31
2023-09-05T10:10:03.630Z,101726.47
2023-09-05T10:15:11.892Z,101722.34
2023-09-05T10:20:22.724Z,101706.44
2023-09-05T10:25:29.697Z,101689.41
2023-09-05T10:30:43.029Z,101689.00
2023-09-05T10:35:48.468Z,101699.91
2023-09-05T10:40:52.533Z,101691.34
2023-09-05T10:45:58.715Z,101676.56
2023-09-05T10:51:12.787Z,101683.66
2023-09-05T10:56:41.307Z,101670.91
2023-09-05T11:01:58.221Z,101659.19
2023-09-05T11:07:14.768Z,101658.13
2023-09-05T11:12:20.136Z,101668.97
2023-09-05T11:17:24.842Z,101658.59
2023-09-05T11:22:30.412Z,101656.50
2023-09-05T11:27:35.070Z,101642.81
2023-09-05T11:32:40.939Z,101632.59
2023-09-05T11:37:59.838Z,101635.28
2023-09-05T11:43:05.601Z,101623.69
2023-09-05T11:48:12.908Z,101617.28
2023-09-05T11:53:21.434Z,101617.53
2023-09-05T11:58:27.571Z,101614.91
2023-09-05T12:03:32.797Z,101618.50
2023-09-05T12:08:38.615Z,101622.56
2023-09-05T12:13:45.163Z,101618.59
2023-09-05T12:18:50.907Z,101617.81
2023-09-05T12:23:56.863Z,101609.88
2023-09-05T12:29:00.843Z,101602.63
2023-09-05T12:34:04.884Z,101599.88
2023-09-05T12:39:10.301Z,101594.50
2023-09-05T12:44:14.374Z,101586.19
2023-09-05T12:49:18.750Z,101582.31
2023-09-05T12:54:24.280Z,101582.47
2023-09-05T12:59:28.997Z,101573.00
2023-09-05T13:04:33.156Z,101577.38
2023-09-05T13:09:38.523Z,101584.09
2023-09-05T13:14:43.974Z,101584.91
2023-09-05T13:19:48.457Z,101587.91
2023-09-05T13:24:53.873Z,101585.16
2023-09-05T13:29:58.164Z,101577.66
2023-09-05T13:35:02.885Z,101578.09
2023-09-05T13:40:10.417Z,101568.63
2023-09-05T13:45:14.605Z,101564.94
2023-09-05T13:50:22.231Z,101559.31
2023-09-05T13:55:28.919Z,101560.47
2023-09-05T14:00:34.276Z,101559.47
2023-09-05T14:05:38.944Z,101559.88
2023-09-05T14:10:47.585Z,101543.66
2023-09-05T14:15:51.816Z,101551.94
2023-09-05T14:20:55.857Z,101554.53
2023-09-05T14:26:01.369Z,101546.91
2023-09-05T14:31:05.492Z,101541.22
2023-09-05T14:36:11.344Z,101547.06
2023-09-05T14:41:16.884Z,101541.88
2023-09-05T14:46:20.958Z,101547.91
2023-09-05T14:51:25.330Z,101545.16
2023-09-05T14:56:31.590Z,101549.63
2023-09-05T15:01:35.751Z,101539.63
2023-09-05T15:06:40.168Z,101538.47
2023-09-05T15:11:45.665Z,101542.44
2023-09-05T15:16:49.854Z,101535.72
2023-09-05T15:21:54.036Z,101533.75
2023-09-05T15:26:59.838Z,101535.63
2023-09-05T15:32:04.194Z,101538.88
2023-09-05T15:37:08.329Z,101533.19
2023-09-05T15:42:14.636Z,101520.75
2023-09-05T15:47:18.709Z,101514.63
2023-09-05T15:52:23.144Z,101521.59
2023-09-05T15:57:28.666Z,101510.78
2023-09-05T16:02:32.959Z,101503.47
2023-09-05T16:07:37.055Z,101514.31
2023-09-05T16:12:42.523Z,101500.97
2023-09-05T16:17:46.690Z,101509.72
2023-09-05T16:22:52.807Z,101516.03
2023-09-05T16:27:58.438Z,101498.72
2023-09-05T16:33:02.640Z,101502.81
2023-09-05T16:38:07.248Z,101500.97
2023-09-05T16:43:12.742Z,101510.38
2023-09-05T16:48:16.949Z,101521.44
2023-09-05T16:53:21.040Z,101518.91
2023-09-05T16:58:26.697Z,101531.22
2023-09-05T17:03:31.532Z,101517.19
2023-09-05T17:08:35.637Z,101523.63
2023-09-05T17:13:42.055Z,101528.28
2023-09-05T17:18:46.804Z,101526.66
2023-09-05T17:23:52.263Z,101543.81
2023-09-05T17:28:57.722Z,101551.59
2023-09-05T17:34:02.322Z,101540.84
2023-09-05T17:39:08.449Z,101545.94
2023-09-05T17:44:13.846Z,101552.16
2023-09-05T17:49:19.999Z,101546.59
2023-09-05T17:54:24.146Z,101554.44
2023-09-05T17:59:29.531Z,101554.03
2023-09-05T18:04:34.549Z,101556.41
2023-09-05T18:09:38.972Z,101555.31
2023-09-05T18:14:44.584Z,101561.38
2023-09-05T18:19:48.842Z,101567.81
2023-09-05T18:24:53.157Z,101564.25
2023-09-05T18:29:59.742Z,101578.53
2023-09-05T18:35:03.970Z,101578.88
2023-09-05T18:40:09.538Z,101596.81
2023-09-05T18:45:15.138Z,101602.81
2023-09-05T18:50:20.569Z,101599.84
2023-09-05T18:55:24.740Z,101611.75
2023-09-05T19:00:30.323Z,101609.78
2023-09-05T19:05:35.418Z,101621.91
2023-09-05T19:10:39.898Z,101624.81
2023-09-05T19:15:45.747Z,101618.53
2023-09-05T19:20:55.673Z,101617.56
2023-09-05T19:25:59.734Z,101627.44
2023-09-05T19:31:05.147Z,101631.09
2023-09-05T19:36:09.454Z,101625.41
2023-09-05T19:41:15.049Z,101622.78
2023-09-05T19:46:23.431Z,101620.16
2023-09-05T19:51:27.632Z,101627.31
2023-09-05T19:56:31.859Z,101622.44
2023-09-05T20:01:37.664Z,101628.16
2023-09-05T20:06:41.856Z,101627.56
2023-09-05T20:11:46.034Z,101632.47
2023-09-05T20:16:51.573Z,101619.44
2023-09-05T20:21:57.388Z,101624.16
2023-09-05T20:27:01.553Z,101624.56
2023-09-05T20:32:09.934Z,101631.72
2023-09-05T20:37:13.979Z,101635.81
2023-09-05T20:42:18.316Z,101637.50
2023-09-05T20:47:24.419Z,101642.59
2023-09-05T20:52:28.482Z,101646.09
2023-09-05T20:57:32.505Z,101648.97
2023-09-05T21:02:38.019Z,101659.59
2023-09-05T21:07:44.935Z,101662.47
2023-09-05T21:12:49.236Z,101666.91
2023-09-05T21:17:54.756Z,101663.66
2023-09-05T21:22:59.527Z,101660.38
2023-09-05T21:28:03.526Z,101650.56
2023-09-05T21:33:09.078Z,101650.13
2023-09-05T21:38:13.095Z,101659.94
2023-09-05T21:43:17.491Z,101665.44
2023-09-05T21:48:23.115Z,101657.25
2023-09-05T21:53:27.137Z,101660.31
2023-09-05T21:58:31.244Z,101667.69
2023-09-05T22:03:36.689Z,101657.84
2023-09-05T22:08:43.743Z,101661.53
2023-09-05T22:13:47.825Z,101675.16
2023-09-05T22:18:54.863Z,101666.81
2023-09-05T22:24:00.941Z,101669.66
2023-09-05T22:29:08.514Z,101680.66
2023-09-05T22:34:14.934Z,101690.03
2023-09-05T22:39:19.761Z,101685.13
2023-09-05T22:44:26.273Z,101677.75
2023-09-05T22:49:31.772Z,101678.94
2023-09-05T22:54:35.900Z,101685.88
2023-09-05T22:59:40.035Z,101682.16
2023-09-05T23:04:45.813Z,101686.44
2023-09-05T23:09:51.459Z,101701.28
2023-09-05T23:14:55.948Z,101692.25
2023-09-05T23:20:02.098Z,101694.69
2023-09-05T23:25:07.527Z,101693.44
2023-09-05T23:30:14.131Z,101700.78
2023-09-05T23:35:19.564Z,101697.28
2023-09-05T23:40:23.502Z,101700.28
2023-09-05T23:45:27.688Z,101706.97
2023-09-05T23:50:33.105Z,101711.63
2023-09-05T23:55:37.331Z,101698.78
